< Typhoon 198605 1986 Season Typhoon 198607 >
Typhoon 198606 (OWEN)
General InformationTrack Information on Google MapsDetailed Wind InformationList of All Images || Disaster Info.ResourceGoogle EarthGE AnimationAtom FeedGeoJSON
Detalied Best Track (Time Zone = UTC)
Year Month Day Hour Lat. Long. Pressure (hPa) Wind (kt) Class Image Chart
1986 6 26 06 13.4 141.6 1004 0 2 Image Chart
1986 6 26 12 13.7 140.8 1004 0 2 Image Chart
1986 6 26 18 14.1 139.9 1004 0 2 Image Chart
1986 6 27 00 14.5 139.0 1004 0 2 Image Chart
1986 6 27 06 14.8 138.2 1004 0 2 Image Chart
1986 6 27 12 15.0 137.3 1004 0 2 Image Chart
1986 6 27 18 15.4 136.5 1002 0 2 Image Chart
1986 6 28 00 15.5 135.5 1000 0 2 Image Chart
1986 6 28 06 15.3 134.3 1000 0 2 Image Chart
1986 6 28 12 15.6 133.5 1000 0 2 Image Chart
1986 6 28 18 16.0 132.5 1000 0 2 Image Chart
1986 6 29 00 16.4 131.5 998 35 3 Image Chart
1986 6 29 06 16.4 130.7 994 35 3 Image Chart
1986 6 29 12 16.6 129.9 985 40 3 Image Chart
1986 6 29 18 16.9 129.2 990 40 3 Image Chart
1986 6 30 00 17.3 128.5 990 40 3 Image Chart
1986 6 30 06 17.9 127.9 992 45 3 Image Chart
1986 6 30 12 18.7 127.5 992 45 3 Image Chart
1986 6 30 18 19.2 126.8 994 45 3 Image Chart
1986 7 1 00 20.1 126.5 996 40 3 Image Chart
1986 7 1 06 21.5 127.0 996 40 3 Image Chart
1986 7 1 12 23.2 127.0 996 40 3 Image Chart
1986 7 1 18 24.5 127.4 998 35 3 Image Chart
1986 7 2 00 25.5 128.0 1000 35 3 Image Chart
1986 7 2 06 27.0 130.0 1000 0 2 Image Chart
1986 7 2 12 28.0 132.0 1000 0 2 Image Chart
1986 7 2 18 29.0 134.0 998 0 6 Image Chart
1986 7 3 00 31.0 138.0 998 0 6 Image Chart
1986 7 3 06 33.0 143.0 998 0 6 Image Chart
1986 7 3 12 35.0 147.0 998 0 6 Image Chart
1986 7 3 18 37.0 152.0 996 0 6 Image Chart
1986 7 4 00 39.0 155.0 996 0 6 Image Chart
1986 7 4 06 40.0 158.0 996 0 6 Image Chart
1986 7 4 12 41.0 160.0 996 0 6 Image Chart
1986 7 4 18 42.0 161.0 994 0 6 Image Chart
1986 7 5 00 43.0 162.0 994 0 6 Image Chart
1986 7 5 06 43.0 164.0 996 0 6 Image Chart
1986 7 5 12 43.0 165.0 996 0 6 Image Chart
1986 7 5 18 43.0 167.0 1000 0 6 Image Chart
1986 7 6 00 44.0 169.0 1000 0 6 Image Chart
1986 7 6 06 44.0 172.0 1004 0 6 Image Chart
1986 7 6 12 44.0 175.0 1004 0 6 Image Chart
1986 7 6 18 45.0 178.0 1006 0 6 Image Chart
Japan Meteorological Agency Best Track Data | Correction Date : 1992-10-21
< Typhoon 198605 1986 Season Typhoon 198607 >

Help